Comunidadtabaiba, Puerto Rico
Current Conditions -  °F | °C
As of 6:50 AM on Thursday 23 Oct 2014 (Local Time) from TJBQ Reporting Station
Clear Clear  
Wind Chill: 73°   Ceiling: Unl
Heat Index: 73°   Visibility: 10mi
Dew Point: 70°   Wind: 6mph
Humidity: 88%   Direction: 120°ESE
Pressure: 29.93"   Gusts: NA
Location:  18.0093°N, 66.6209°W
Report Text: TJBQ 231050Z 12005KT 10SM SKC 23/21 A2993 RMK RWY 08- ATIS B
Loading
Personal Weather Stations






























Interactive Weather Map
Tropical Storm Tracking
New forecast layout! Learn more

10-Day Weather Forecast

Advertisements
Track Severe Weather on mobile